Time;durP1;ratioP1;P1;durP2;ratioP2;P2;SDS_P1;SDS_P2;PMS_P1;PMS_P2;Temp;Humidity;BMP_temperature;BMP_pressure;BME280_temperature;BME280_humidity;BME280_pressure;Samples;Min_cycle;Max_cycle;Signal;HPM_P1;HPM_P2
2022/04/29 00:01:35;;;;;;;11.77;10.57;;;18.30;5.40;;;;;;5050539;28;20067;-58
2022/04/29 00:04:00;;;;;;;14.05;10.48;;;18.30;5.20;;;;;;5052137;28;20483;-59
2022/04/29 00:06:26;;;;;;;13.75;10.85;;;18.30;5.40;;;;;;5049983;28;20144;-59
2022/04/29 00:08:52;;;;;;;15.98;11.63;;;18.40;5.30;;;;;;5052031;28;20035;-59
2022/04/29 00:11:18;;;;;;;13.02;11.07;;;18.30;5.30;;;;;;5051594;28;20900;-59
2022/04/29 00:13:44;;;;;;;11.73;10.48;;;18.30;5.30;;;;;;5052180;28;20065;-59
2022/04/29 00:16:09;;;;;;;16.20;10.25;;;18.30;5.20;;;;;;5051183;28;20111;-59
2022/04/29 00:18:35;;;;;;;14.68;10.95;;;18.40;5.20;;;;;;5050398;28;20033;-58
2022/04/29 00:21:00;;;;;;;11.98;10.57;;;18.40;5.00;;;;;;5050189;28;20025;-59
2022/04/29 00:23:26;;;;;;;12.90;10.52;;;18.30;5.10;;;;;;5052136;28;20021;-60
2022/04/29 00:25:52;;;;;;;15.73;10.60;;;18.30;5.00;;;;;;5051759;28;20029;-58
2022/04/29 00:28:17;;;;;;;14.43;10.93;;;18.40;4.90;;;;;;5051021;28;20033;-58
2022/04/29 00:30:43;;;;;;;13.73;10.48;;;18.30;4.90;;;;;;5052008;28;20024;-59
2022/04/29 00:33:09;;;;;;;14.50;10.75;;;18.30;4.90;;;;;;5051090;28;20060;-59
2022/04/29 00:35:34;;;;;;;15.23;9.30;;;18.40;4.80;;;;;;5047857;28;20075;-59
2022/04/29 00:38:00;;;;;;;15.60;10.10;;;18.40;4.80;;;;;;5044460;28;20133;-59
2022/04/29 00:40:29;;;;;;;12.32;10.00;;;18.50;5.00;;;;;;5039047;28;20470;-59
2022/04/29 00:42:55;;;;;;;13.70;10.07;;;18.20;4.70;;;;;;5050765;28;20037;-59
2022/04/29 00:45:21;;;;;;;13.52;10.38;;;18.40;4.80;;;;;;5067391;28;20492;-59
2022/04/29 00:51:09;;;;;;;12.93;9.40;;;18.60;4.60;;;;;;5048106;28;20079;-58
2022/04/29 00:53:35;;;;;;;11.80;10.05;;;18.60;4.60;;;;;;5051027;28;20052;-59
2022/04/29 00:56:02;;;;;;;13.23;10.48;;;18.40;4.50;;;;;;5051781;28;20040;-58
2022/04/29 00:58:33;;;;;;;12.75;9.80;;;18.50;4.50;;;;;;5051247;28;20389;-58
2022/04/29 01:01:03;;;;;;;12.50;9.95;;;18.60;4.70;;;;;;5051841;28;20471;-58
2022/04/29 01:03:28;;;;;;;14.02;10.05;;;18.60;4.60;;;;;;5050808;28;20028;-58
2022/04/29 01:06:13;;;;;;;13.70;10.00;;;18.60;4.60;;;;;;5050717;28;20398;-58
2022/04/29 01:08:38;;;;;;;13.23;10.40;;;18.50;4.50;;;;;;5053254;28;20454;-58
2022/04/29 01:11:04;;;;;;;14.15;9.40;;;18.40;4.40;;;;;;5055254;28;20032;-59
2022/04/29 01:13:30;;;;;;;12.15;9.63;;;18.50;4.30;;;;;;5053633;28;20044;-58
2022/04/29 01:15:57;;;;;;;18.13;10.25;;;18.50;4.50;;;;;;5055122;28;20033;-58
2022/04/29 01:18:24;;;;;;;11.95;9.70;;;18.60;4.50;;;;;;5053899;28;20033;-58
2022/04/29 01:21:03;;;;;;;12.55;9.45;;;18.50;4.50;;;;;;5054084;28;20535;-59
2022/04/29 01:23:29;;;;;;;13.07;9.38;;;18.40;4.20;;;;;;5054336;28;20025;-58
2022/04/29 01:25:55;;;;;;;11.80;8.32;;;18.30;4.50;;;;;;5055048;28;20086;-58
2022/04/29 01:28:24;;;;;;;15.98;10.07;;;18.40;4.40;;;;;;5054440;28;20060;-58
2022/04/29 01:30:51;;;;;;;12.98;10.02;;;18.40;4.70;;;;;;5055241;28;20150;-59
2022/04/29 01:33:18;;;;;;;13.27;8.98;;;18.40;4.10;;;;;;5054011;28;20112;-57
2022/04/29 01:35:43;;;;;;;15.30;9.55;;;18.40;4.10;;;;;;5055618;28;20025;-58
2022/04/29 01:38:09;;;;;;;13.45;9.23;;;18.30;4.10;;;;;;5054159;28;20312;-57
2022/04/29 01:40:35;;;;;;;12.73;8.40;;;18.50;4.20;;;;;;5054796;28;20467;-57
2022/04/29 01:43:02;;;;;;;15.60;9.52;;;18.50;4.30;;;;;;5053384;28;20029;-56
2022/04/29 01:45:28;;;;;;;13.95;9.10;;;18.50;4.10;;;;;;5054159;28;20021;-57
2022/04/29 01:47:53;;;;;;;12.00;8.98;;;18.50;4.10;;;;;;5053411;28;20452;-58
2022/04/29 01:50:19;;;;;;;11.50;8.85;;;18.30;4.10;;;;;;5054743;28;20509;-58
2022/04/29 01:52:45;;;;;;;13.93;9.35;;;18.30;4.30;;;;;;5053736;28;20026;-57
2022/04/29 01:55:10;;;;;;;15.10;8.38;;;18.40;4.20;;;;;;5054909;28;20028;-58
2022/04/29 01:57:36;;;;;;;12.45;8.85;;;18.30;4.20;;;;;;5053792;28;20033;-57
2022/04/29 02:00:04;;;;;;;13.27;9.52;;;18.50;4.20;;;;;;5071008;28;20051;-57
2022/04/29 02:02:30;;;;;;;11.57;8.73;;;18.40;4.30;;;;;;5053528;28;20462;-58
2022/04/29 02:04:56;;;;;;;16.92;9.68;;;18.50;4.40;;;;;;5054527;28;20111;-57
2022/04/29 02:07:21;;;;;;;13.00;8.98;;;18.30;4.20;;;;;;5053105;28;20167;-57
2022/04/29 02:09:47;;;;;;;14.10;9.18;;;18.30;4.20;;;;;;5054519;28;20024;-57
2022/04/29 02:12:15;;;;;;;12.73;9.13;;;18.30;4.20;;;;;;5053615;28;20036;-57
2022/04/29 02:14:42;;;;;;;12.88;8.65;;;18.20;4.30;;;;;;5054160;28;20025;-57
2022/04/29 02:17:09;;;;;;;9.63;7.78;;;18.30;4.20;;;;;;5053373;28;20090;-57
2022/04/29 02:19:36;;;;;;;14.88;8.32;;;18.20;4.10;;;;;;5053282;28;20032;-58
2022/04/29 02:22:03;;;;;;;15.32;8.73;;;18.40;4.10;;;;;;5053573;28;20041;-57
2022/04/29 02:24:29;;;;;;;10.75;8.55;;;18.30;4.30;;;;;;5053300;28;20029;-57
2022/04/29 02:26:55;;;;;;;13.38;8.80;;;18.40;4.20;;;;;;5052738;28;20051;-57
2022/04/29 02:29:21;;;;;;;13.93;8.55;;;18.30;4.50;;;;;;5052577;28;20111;-55
2022/04/29 02:31:48;;;;;;;12.73;9.50;;;18.30;4.30;;;;;;5051859;28;20406;-57
2022/04/29 02:34:14;;;;;;;12.23;8.57;;;18.30;4.40;;;;;;5052490;28;20067;-56
2022/04/29 02:36:41;;;;;;;13.32;8.63;;;18.40;4.60;;;;;;5038026;28;20116;-57
2022/04/29 02:39:08;;;;;;;13.05;8.35;;;18.20;4.70;;;;;;5038088;28;20534;-57
2022/04/29 02:41:33;;;;;;;12.35;9.02;;;18.40;4.70;;;;;;5035738;28;20045;-57
2022/04/29 02:43:59;;;;;;;11.88;8.63;;;18.30;4.50;;;;;;5046390;28;20017;-58
2022/04/29 02:46:25;;;;;;;12.30;9.40;;;18.30;4.60;;;;;;5047886;28;20029;-57
2022/04/29 02:48:50;;;;;;;11.90;8.48;;;18.30;4.60;;;;;;5060775;28;20029;-57
2022/04/29 02:51:16;;;;;;;11.52;8.18;;;18.40;4.70;;;;;;5042065;28;20370;-57
2022/04/29 02:53:43;;;;;;;12.80;9.20;;;18.40;4.60;;;;;;5047209;28;20113;-57
2022/04/29 02:56:08;;;;;;;13.18;8.25;;;18.30;4.60;;;;;;5050092;28;20158;-57
2022/04/29 02:58:34;;;;;;;14.45;8.48;;;18.40;4.80;;;;;;5047749;28;20100;-58
2022/04/29 03:01:01;;;;;;;12.38;8.77;;;18.30;4.80;;;;;;5035598;28;20047;-58
2022/04/29 03:03:27;;;;;;;10.70;7.60;;;18.40;4.70;;;;;;5053412;28;20059;-59
2022/04/29 03:05:53;;;;;;;12.63;9.10;;;18.40;4.90;;;;;;5052359;28;20056;-59
2022/04/29 03:08:19;;;;;;;10.85;8.52;;;18.30;4.70;;;;;;5053141;28;20478;-58
2022/04/29 03:10:46;;;;;;;14.68;8.38;;;18.40;4.70;;;;;;5052392;28;20024;-57
2022/04/29 03:13:12;;;;;;;13.35;8.63;;;18.30;4.80;;;;;;5049140;28;20037;-58
2022/04/29 03:15:38;;;;;;;13.25;8.45;;;18.50;5.00;;;;;;5053475;28;20063;-57
2022/04/29 03:18:20;;;;;;;11.90;8.75;;;18.30;4.80;;;;;;5052054;28;20036;-54
2022/04/29 03:20:48;;;;;;;11.68;7.90;;;18.30;4.70;;;;;;5052163;28;20013;-55
2022/04/29 03:23:14;;;;;;;11.50;8.55;;;18.30;4.80;;;;;;5043301;28;20171;-56
2022/04/29 03:25:41;;;;;;;11.43;8.65;;;18.30;4.90;;;;;;5052702;28;20143;-54
2022/04/29 03:28:07;;;;;;;14.13;7.78;;;18.30;4.90;;;;;;5051822;28;20039;-55
2022/04/29 03:30:34;;;;;;;12.93;8.70;;;18.30;4.90;;;;;;5051875;28;20057;-54
2022/04/29 03:33:03;;;;;;;9.88;8.02;;;18.40;5.00;;;;;;5051871;28;20067;-56
2022/04/29 03:35:28;;;;;;;9.82;7.70;;;18.30;5.00;;;;;;5052368;28;20060;-55
2022/04/29 03:37:54;;;;;;;11.63;8.23;;;18.40;5.10;;;;;;5049823;28;20477;-57
2022/04/29 03:40:25;;;;;;;11.65;7.95;;;18.40;5.10;;;;;;5050240;28;20050;-57
2022/04/29 03:42:52;;;;;;;14.90;8.45;;;18.30;5.20;;;;;;5051636;28;20032;-55
2022/04/29 03:45:20;;;;;;;34.28;9.13;;;18.30;5.10;;;;;;5049298;28;20028;-56
2022/04/29 03:47:45;;;;;;;12.95;7.65;;;18.30;5.20;;;;;;5052109;28;20070;-58
2022/04/29 03:50:11;;;;;;;13.13;7.97;;;18.30;5.40;;;;;;5051889;28;20063;-57
2022/04/29 03:53:09;;;;;;;11.48;7.57;;;18.40;5.30;;;;;;5052270;28;20547;-56
2022/04/29 03:55:35;;;;;;;13.65;8.23;;;18.20;5.00;;;;;;5030447;28;20045;-56
2022/04/29 03:58:02;;;;;;;13.18;8.68;;;18.20;5.30;;;;;;5042567;28;20029;-57
2022/04/29 04:00:31;;;;;;;15.40;8.38;;;18.20;5.30;;;;;;5051432;28;20040;-57
2022/04/29 04:02:57;;;;;;;10.27;8.00;;;18.10;5.40;;;;;;5067787;28;20017;-57
2022/04/29 04:05:23;;;;;;;12.25;8.20;;;18.20;6.00;;;;;;5066906;28;20538;-57
2022/04/29 04:07:49;;;;;;;12.77;8.60;;;18.20;6.00;;;;;;5050931;28;20040;-57
2022/04/29 04:10:15;;;;;;;13.63;8.80;;;18.10;6.50;;;;;;5050661;28;20056;-56
2022/04/29 04:12:49;;;;;;;13.10;8.95;;;18.00;6.40;;;;;;5052213;28;20112;-56
2022/04/29 04:15:16;;;;;;;15.73;9.15;;;18.10;6.70;;;;;;5051358;28;20025;-56
2022/04/29 04:17:42;;;;;;;12.88;9.20;;;18.10;7.00;;;;;;5051918;28;20025;-57
2022/04/29 04:20:11;;;;;;;12.43;8.23;;;18.00;7.40;;;;;;5051413;28;20033;-57
2022/04/29 04:22:37;;;;;;;10.63;7.78;;;18.00;8.30;;;;;;5052108;28;20052;-56
2022/04/29 04:25:13;;;;;;;11.70;8.57;;;17.90;9.60;;;;;;5051599;28;20037;-58
2022/04/29 04:27:40;;;;;;;14.00;8.82;;;18.30;9.90;;;;;;5051859;28;20039;-57
2022/04/29 04:30:06;;;;;;;11.10;8.68;;;18.10;10.20;;;;;;5051829;28;20116;-57
2022/04/29 04:32:37;;;;;;;14.63;8.40;;;18.10;10.30;;;;;;5051544;28;20033;-55
2022/04/29 04:35:04;;;;;;;13.18;8.85;;;18.10;10.40;;;;;;5056373;28;20394;-56
2022/04/29 04:37:31;;;;;;;15.23;8.55;;;18.00;10.40;;;;;;5050820;28;20029;-55
2022/04/29 04:39:58;;;;;;;13.02;8.88;;;17.90;10.20;;;;;;5051400;28;20037;-54
2022/04/29 04:42:24;;;;;;;13.02;9.18;;;18.10;10.50;;;;;;5054766;28;20033;-57
2022/04/29 04:44:51;;;;;;;16.33;10.18;;;17.90;10.40;;;;;;5055368;28;20394;-58
2022/04/29 04:47:17;;;;;;;12.35;8.52;;;17.90;10.90;;;;;;5056131;28;20044;-56
2022/04/29 04:49:44;;;;;;;14.80;8.75;;;18.00;11.10;;;;;;5055109;28;20490;-57
2022/04/29 04:52:10;;;;;;;13.35;9.13;;;17.90;11.00;;;;;;5071637;28;20087;-57
2022/04/29 04:54:36;;;;;;;14.77;9.90;;;18.00;11.10;;;;;;5070494;28;20033;-57
2022/04/29 04:57:03;;;;;;;14.68;9.18;;;17.80;11.30;;;;;;5055592;28;20033;-56
2022/04/29 04:59:28;;;;;;;15.48;9.15;;;17.90;15.80;;;;;;5055107;28;20025;-57
2022/04/29 05:01:54;;;;;;;14.65;9.82;;;18.10;16.10;;;;;;5070869;28;20025;-56
2022/04/29 05:04:22;;;;;;;16.60;9.63;;;;;;;;;;5055078;28;20025;-56
2022/04/29 05:06:47;;;;;;;15.25;9.73;;;17.90;16.10;;;;;;5055391;28;20455;-58
2022/04/29 05:09:13;;;;;;;14.82;10.65;;;17.90;16.60;;;;;;5068689;28;20112;-57
2022/04/29 05:11:39;;;;;;;19.65;10.40;;;17.90;16.50;;;;;;5052869;28;20040;-56
2022/04/29 05:14:09;;;;;;;14.48;9.80;;;;;;;;;;5069843;28;20467;-57
2022/04/29 05:16:36;;;;;;;14.15;9.52;;;;;;;;;;5055344;28;20036;-57
2022/04/29 05:19:05;;;;;;;14.48;10.07;;;;;;;;;;5054552;28;20086;-57
2022/04/29 05:22:08;;;;;;;14.35;10.07;;;;;;;;;;5055056;28;20083;-56
2022/04/29 05:24:52;;;;;;;13.77;10.13;;;;;;;;;;5054542;28;20031;-55
2022/04/29 05:27:27;;;;;;;14.98;9.50;;;;;;;;;;5053915;28;20258;-57
2022/04/29 05:29:53;;;;;;;15.95;11.25;;;;;;;;;;5054655;28;20075;-56
2022/04/29 05:32:21;;;;;;;13.95;10.57;;;;;;;;;;5055068;28;20486;-58
2022/04/29 05:34:50;;;;;;;16.10;10.48;;;;;;;;;;5054286;28;20047;-57
2022/04/29 05:37:16;;;;;;;18.67;11.50;;;;;;;;;;5054673;28;20025;-57
2022/04/29 05:42:32;;;;;;;13.77;10.63;;;;;;;;;;5054687;28;20107;-57
2022/04/29 05:45:00;;;;;;;15.75;10.18;;;;;;;;;;5054087;28;20017;-58
2022/04/29 05:47:26;;;;;;;13.60;10.48;;;;;;;;;;5054335;28;20420;-58
2022/04/29 05:49:52;;;;;;;16.33;11.02;;;;;;;;;;5053999;28;20555;-57
2022/04/29 05:52:18;;;;;;;15.18;11.20;;;;;;;;;;5053373;28;20029;-57
2022/04/29 05:54:45;;;;;;;18.10;11.52;;;;;;;;;;5053010;28;20135;-56
2022/04/29 05:57:11;;;;;;;18.50;11.85;;;;;;;;;;5053837;28;20017;-56
2022/04/29 05:59:37;;;;;;;17.77;11.98;;;;;;;;;;5053687;28;20474;-57
2022/04/29 06:02:04;;;;;;;16.95;11.00;;;;;;;;;;5054313;28;20025;-56
2022/04/29 06:04:30;;;;;;;14.90;11.40;;;;;;;;;;5053468;28;20385;-57
2022/04/29 06:06:56;;;;;;;16.27;10.27;;;;;;;;;;5054165;28;20496;-56
2022/04/29 06:09:22;;;;;;;17.27;10.98;;;;;;;;;;5053533;28;20041;-57
2022/04/29 06:11:48;;;;;;;15.57;11.15;;;;;;;;;;5054331;28;20071;-56
2022/04/29 06:14:14;;;;;;;16.38;11.57;;;;;;;;;;5053478;28;20028;-58
2022/04/29 06:16:40;;;;;;;18.88;12.00;;;;;;;;;;5053839;28;20104;-58
2022/04/29 06:19:06;;;;;;;16.20;11.75;;;;;;;;;;5053558;28;20061;-57
2022/04/29 06:21:32;;;;;;;17.08;11.52;;;;;;;;;;5069264;28;20462;-57
2022/04/29 06:23:58;;;;;;;15.60;10.82;;;;;;;;;;5053050;28;20133;-57
2022/04/29 06:26:24;;;;;;;14.18;10.15;;;;;;;;;;5052085;28;20028;-57
2022/04/29 06:28:53;;;;;;;14.25;10.68;;;;;;;;;;5053607;28;20044;-57
2022/04/29 06:31:19;;;;;;;13.20;10.20;;;;;;;;;;5053372;28;20520;-57
2022/04/29 06:33:45;;;;;;;12.75;9.50;;;;;;;;;;5053667;28;20025;-56
2022/04/29 06:36:11;;;;;;;17.15;9.20;;;;;;;;;;5052951;28;20363;-57
2022/04/29 06:38:56;;;;;;;14.88;10.23;;;;;;;;;;5053336;28;20082;-57
2022/04/29 06:41:22;;;;;;;12.77;10.18;;;;;;;;;;5052292;28;20084;-57
2022/04/29 06:43:48;;;;;;;12.00;9.32;;;;;;;;;;5053519;28;20029;-57
2022/04/29 06:46:15;;;;;;;11.80;9.82;;;;;;;;;;5052355;28;20079;-58
2022/04/29 06:51:45;;;;;;;10.60;9.50;;;;;;;;;;5052170;28;20548;-58
2022/04/29 06:54:11;;;;;;;11.75;10.15;;;;;;;;;;5052650;28;20037;-58
2022/04/29 06:56:37;;;;;;;12.48;9.20;;;;;;;;;;5052680;28;20039;-56
2022/04/29 06:59:03;;;;;;;11.20;9.48;;;;;;;;;;5053381;28;20078;-58
2022/04/29 07:01:30;;;;;;;14.85;10.45;;;;;;;;;;5055646;28;20126;-57
2022/04/29 07:03:56;;;;;;;13.63;9.05;;;;;;;;;;5053277;28;20029;-58
2022/04/29 07:06:22;;;;;;;11.45;8.88;;;;;;;;;;5052063;28;20029;-57
2022/04/29 07:08:48;;;;;;;10.27;8.90;;;;;;;;;;5052926;28;20474;-57
2022/04/29 07:11:14;;;;;;;15.55;9.77;;;;;;;;;;5046899;28;20444;-58
2022/04/29 07:13:43;;;;;;;13.45;9.60;;;;;;;;;;5051959;28;20033;-57
2022/04/29 07:16:09;;;;;;;12.65;9.30;;;;;;;;;;5052287;28;20108;-57
2022/04/29 07:18:36;;;;;;;10.88;9.70;;;;;;;;;;5052952;28;20033;-55
2022/04/29 07:21:02;;;;;;;12.18;9.52;;;;;;;;;;5052188;28;20029;-57
2022/04/29 07:23:29;;;;;;;12.13;8.98;;;;;;;;;;5052647;28;20028;-57
2022/04/29 07:25:55;;;;;;;10.80;9.10;;;;;;;;;;5066522;28;20021;-58
2022/04/29 07:28:27;;;;;;;10.35;9.13;;;;;;;;;;5064158;28;20139;-57
2022/04/29 07:30:53;;;;;;;11.45;8.55;;;;;;;;;;5038534;28;20133;-57
2022/04/29 07:33:19;;;;;;;10.70;9.45;;;;;;;;;;5055656;28;20021;-58
2022/04/29 07:44:01;;;;;;;9.68;8.57;;;;;;;;;;5052734;28;20032;-57
2022/04/29 07:46:26;;;;;;;11.48;9.05;;;18.80;11.10;;;;;;5050730;28;20021;-59
2022/04/29 07:48:52;;;;;;;10.93;9.77;;;18.80;11.40;;;;;;5050040;28;20040;-59
2022/04/29 07:51:18;;;;;;;10.55;9.38;;;18.80;4.30;;;;;;5051910;28;20107;-59
2022/04/29 07:53:44;;;;;;;10.23;8.90;;;18.80;4.40;;;;;;5050680;28;20025;-60
2022/04/29 07:56:09;;;;;;;9.85;8.43;;;19.00;4.10;;;;;;5052252;28;20029;-60
2022/04/29 07:58:35;;;;;;;10.05;8.95;;;19.20;4.10;;;;;;5052569;28;20032;-60
2022/04/29 08:01:01;;;;;;;11.70;9.10;;;19.00;4.20;;;;;;5051616;28;20017;-60
2022/04/29 08:03:27;;;;;;;12.70;9.38;;;19.20;4.00;;;;;;5052260;28;20032;-59
2022/04/29 08:05:54;;;;;;;12.40;9.57;;;19.20;4.00;;;;;;5051167;28;20017;-59
2022/04/29 08:08:20;;;;;;;12.00;8.68;;;19.20;14.20;;;;;;5067127;28;20041;-59
2022/04/29 08:10:46;;;;;;;11.10;9.27;;;19.10;9.60;;;;;;5051209;28;20508;-59
2022/04/29 08:13:12;;;;;;;10.68;8.60;;;19.20;10.00;;;;;;5051526;28;20028;-59
2022/04/29 08:15:37;;;;;;;11.30;9.05;;;19.30;9.10;;;;;;5051341;28;20032;-59
2022/04/29 08:18:04;;;;;;;11.73;9.82;;;19.40;4.50;;;;;;5055985;28;20092;-59
2022/04/29 08:20:30;;;;;;;12.23;10.23;;;19.40;1.80;;;;;;5055367;28;20109;-60
2022/04/29 08:22:56;;;;;;;13.40;10.10;;;19.50;5.20;;;;;;5056463;28;20052;-60
2022/04/29 08:25:22;;;;;;;12.35;8.80;;;19.60;6.10;;;;;;5054015;28;20064;-59
2022/04/29 08:27:47;;;;;;;11.18;9.57;;;19.60;1.20;;;;;;5054157;28;20046;-59
2022/04/29 08:30:14;;;;;;;11.45;9.85;;;19.80;1.00;;;;;;5056134;28;20021;-58
2022/04/29 08:32:41;;;;;;;10.63;8.45;;;19.90;1.00;;;;;;5054626;28;20060;-59
2022/04/29 08:35:09;;;;;;;8.52;7.57;;;19.90;1.00;;;;;;5055280;28;20029;-59
2022/04/29 08:37:36;;;;;;;10.75;8.15;;;19.80;1.00;;;;;;5035618;28;20145;-60
2022/04/29 08:43:32;;;;;;;8.93;7.50;;;19.90;1.00;;;;;;5028644;28;20043;-60
2022/04/29 08:45:58;;;;;;;10.02;7.45;;;20.00;1.00;;;;;;5033916;28;20079;-60
2022/04/29 08:48:25;;;;;;;11.07;7.40;;;20.30;1.00;;;;;;5024767;28;20037;-60
2022/04/29 08:50:51;;;;;;;7.78;6.03;;;20.20;1.00;;;;;;5020224;28;20372;-60
2022/04/29 08:53:17;;;;;;;7.32;6.50;;;20.10;1.00;;;;;;5033410;28;20452;-59
2022/04/29 08:58:39;;;;;;;8.20;6.85;;;20.40;1.00;;;;;;5035172;28;20041;-60
2022/04/29 09:01:20;;;;;;;11.48;7.45;;;20.40;1.00;;;;;;5033234;28;20096;-59
2022/04/29 09:03:46;;;;;;;8.52;7.68;;;20.30;1.00;;;;;;5014506;28;20030;-59
2022/04/29 09:06:17;;;;;;;7.78;6.97;;;20.30;1.00;;;;;;5028346;28;20034;-59
2022/04/29 09:08:44;;;;;;;7.93;7.13;;;20.30;1.00;;;;;;5035350;28;20111;-59
2022/04/29 09:11:12;;;;;;;9.40;8.40;;;20.20;1.00;;;;;;5034668;28;20391;-60
2022/04/29 09:13:39;;;;;;;10.90;8.20;;;20.30;1.00;;;;;;5030588;28;20033;-59
2022/04/29 09:16:10;;;;;;;8.43;7.50;;;20.20;1.00;;;;;;5035081;28;20060;-59
2022/04/29 09:18:41;;;;;;;12.23;9.13;;;20.40;1.00;;;;;;5035202;28;20029;-60
2022/04/29 09:21:08;;;;;;;8.52;7.57;;;20.50;1.00;;;;;;5035603;28;20040;-60
2022/04/29 09:23:37;;;;;;;8.80;7.63;;;20.70;1.00;;;;;;5014501;28;20048;-60
2022/04/29 09:26:05;;;;;;;9.20;7.50;;;20.50;1.00;;;;;;5021527;28;20021;-59
2022/04/29 09:28:34;;;;;;;9.30;7.38;;;20.60;1.00;;;;;;5033436;28;20041;-60
2022/04/29 09:31:01;;;;;;;9.77;8.02;;;20.60;1.00;;;;;;5035836;28;20364;-59
2022/04/29 09:33:29;;;;;;;9.45;8.40;;;20.70;1.00;;;;;;5033071;28;20100;-59
2022/04/29 09:35:55;;;;;;;10.73;7.95;;;20.70;1.00;;;;;;5034751;28;20028;-60
2022/04/29 09:41:06;;;;;;;10.38;8.48;;;20.50;1.00;;;;;;5035365;28;20032;-59
2022/04/29 09:43:33;;;;;;;9.13;7.30;;;20.40;1.00;;;;;;5051403;28;20033;-59
2022/04/29 09:46:17;;;;;;;10.13;6.80;;;20.40;1.00;;;;;;5054444;28;20108;-60
2022/04/29 09:49:06;;;;;;;8.95;6.72;;;20.50;1.00;;;;;;5054651;28;20362;-59
2022/04/29 09:58:15;;;;;;;7.25;6.55;;;20.50;1.00;;;;;;5052038;28;20032;-59
2022/04/29 10:00:41;;;;;;;8.27;6.40;;;20.50;1.00;;;;;;5054339;28;20029;-59
2022/04/29 10:03:06;;;;;;;9.55;7.07;;;20.60;1.00;;;;;;5052888;28;20021;-59
2022/04/29 10:05:33;;;;;;;10.15;7.15;;;20.50;1.00;;;;;;5054343;28;20033;-59
2022/04/29 10:07:59;;;;;;;8.02;6.53;;;20.70;1.00;;;;;;5053371;28;20113;-60
2022/04/29 10:10:30;;;;;;;8.50;6.88;;;20.60;1.00;;;;;;5054230;28;20029;-59
2022/04/29 10:12:57;;;;;;;9.27;7.35;;;20.60;1.00;;;;;;5051903;28;20370;-60
2022/04/29 10:15:23;;;;;;;9.20;7.43;;;20.50;1.00;;;;;;5053111;28;20031;-60
2022/04/29 10:23:24;;;;;;;8.68;7.75;;;21.00;1.00;;;;;;5052377;28;20087;-60
2022/04/29 10:25:50;;;;;;;8.73;6.75;;;20.90;1.00;;;;;;5053713;28;20029;-60
2022/04/29 10:28:19;;;;;;;9.10;7.55;;;21.00;1.00;;;;;;5052969;28;20041;-60
2022/04/29 10:30:45;;;;;;;7.90;7.10;;;20.80;1.00;;;;;;5053204;28;20040;-60
2022/04/29 10:33:17;;;;;;;8.30;7.45;;;20.80;1.00;;;;;;5053080;28;20421;-60
2022/04/29 10:35:49;;;;;;;9.10;7.15;;;20.90;1.00;;;;;;5053799;28;20033;-60
2022/04/29 10:38:16;;;;;;;7.00;6.30;;;20.90;1.00;;;;;;5052787;28;20025;-60
2022/04/29 10:40:44;;;;;;;10.45;8.50;;;21.00;1.00;;;;;;5053383;28;20025;-60
2022/04/29 10:43:13;;;;;;;7.30;6.60;;;20.90;1.00;;;;;;5052458;28;20079;-60
2022/04/29 10:46:03;;;;;;;9.02;7.07;;;21.20;1.00;;;;;;5053607;28;20021;-60
2022/04/29 10:48:36;;;;;;;8.70;6.68;;;21.20;1.00;;;;;;5067272;28;20051;-60
2022/04/29 10:51:31;;;;;;;8.32;6.70;;;21.40;1.00;;;;;;5052851;28;20044;-61
2022/04/29 10:53:57;;;;;;;;;;;21.50;1.00;;;;;;5027935;28;20037;-59
2022/04/29 10:56:32;;;;;;;8.65;7.18;;;21.20;1.00;;;;;;5039907;28;19905;-59
2022/04/29 10:59:03;;;;;;;9.95;8.15;;;21.30;1.00;;;;;;5053359;28;20047;-60
2022/04/29 11:01:34;;;;;;;7.78;6.32;;;21.50;1.00;;;;;;5052143;28;20124;-60
2022/04/29 11:04:01;;;;;;;10.00;6.65;;;21.70;1.00;;;;;;5053426;28;20051;-61
2022/04/29 11:06:37;;;;;;;9.35;6.68;;;21.90;1.00;;;;;;5052129;28;20059;-61
2022/04/29 11:09:26;;;;;;;7.32;6.43;;;21.70;1.00;;;;;;5053063;28;20562;-60
2022/04/29 11:11:53;;;;;;;8.18;5.68;;;21.90;1.00;;;;;;5051468;28;20104;-60
2022/04/29 11:14:19;;;;;;;7.32;6.10;;;22.00;1.00;;;;;;5052808;28;20025;-61
2022/04/29 11:16:52;;;;;;;10.30;7.35;;;21.90;1.00;;;;;;5051813;28;20411;-60
2022/04/29 11:19:23;;;;;;;7.95;7.22;;;22.00;1.00;;;;;;5052821;28;20013;-60
2022/04/29 11:24:44;;;;;;;7.80;7.07;;;22.10;1.00;;;;;;5053196;28;20082;-60
2022/04/29 11:27:10;;;;;;;13.95;7.22;;;22.40;1.00;;;;;;5050253;28;20095;-60
2022/04/29 11:29:46;;;;;;;7.13;6.43;;;22.40;1.00;;;;;;5052669;28;20094;-61
2022/04/29 11:32:13;;;;;;;8.88;6.82;;;22.40;1.00;;;;;;5052100;28;20041;-59
2022/04/29 11:35:14;;;;;;;7.85;6.40;;;22.40;1.00;;;;;;5052474;28;20021;-59
2022/04/29 11:37:39;;;;;;;8.45;7.65;;;22.50;1.00;;;;;;5029656;28;20029;-59
2022/04/29 11:40:07;;;;;;;8.75;7.50;;;22.70;1.00;;;;;;5048376;28;20086;-61
2022/04/29 11:42:35;;;;;;;7.78;7.07;;;22.70;1.00;;;;;;5051595;28;20040;-60
2022/04/29 11:45:08;;;;;;;8.13;6.68;;;22.90;1.00;;;;;;5052794;28;20033;-60
2022/04/29 11:47:36;;;;;;;8.40;6.97;;;23.20;1.00;;;;;;5048785;28;20029;-60
2022/04/29 11:50:02;;;;;;;8.15;7.45;;;23.30;1.00;;;;;;5052331;28;20024;-60
2022/04/29 11:52:30;;;;;;;8.18;7.47;;;24.20;1.00;;;;;;5060789;28;20115;-61
2022/04/29 11:54:57;;;;;;;9.40;7.10;;;25.10;1.00;;;;;;5052176;28;20028;-61
2022/04/29 11:57:25;;;;;;;8.85;6.78;;;25.80;1.00;;;;;;5051670;28;20055;-60
2022/04/29 11:59:51;;;;;;;8.38;7.25;;;26.30;1.00;;;;;;5052612;28;20033;-61
2022/04/29 12:02:18;;;;;;;7.43;6.72;;;26.30;1.00;;;;;;5050144;28;20039;-60
2022/04/29 12:04:58;;;;;;;9.90;7.53;;;26.10;1.00;;;;;;5052323;28;20108;-60
2022/04/29 12:07:25;;;;;;;8.05;6.63;;;26.90;1.00;;;;;;5051706;28;20032;-61
2022/04/29 12:09:52;;;;;;;9.65;8.65;;;26.90;1.00;;;;;;5052620;28;20402;-61
2022/04/29 12:12:26;;;;;;;9.98;9.05;;;26.60;1.00;;;;;;5051475;28;20025;-61
2022/04/29 12:14:53;;;;;;;8.57;7.78;;;26.10;1.00;;;;;;5050791;28;20031;-61
2022/04/29 12:17:30;;;;;;;9.18;8.25;;;26.20;1.00;;;;;;5050750;28;20025;-60
2022/04/29 12:19:56;;;;;;;8.55;7.85;;;26.40;1.00;;;;;;5052236;28;20478;-61
2022/04/29 12:22:29;;;;;;;9.25;7.68;;;27.10;1.00;;;;;;5050340;28;20474;-61
2022/04/29 12:24:55;;;;;;;8.75;7.97;;;28.10;1.00;;;;;;5052151;28;20061;-60
2022/04/29 12:27:31;;;;;;;7.60;7.00;;;27.80;1.00;;;;;;5049635;28;20060;-61
2022/04/29 12:35:28;;;;;;;6.88;6.13;;;28.00;1.00;;;;;;5050757;28;20093;-61
2022/04/29 12:37:54;;;;;;;9.75;8.85;;;28.60;1.00;;;;;;5051246;28;20108;-60
2022/04/29 12:40:28;;;;;;;8.40;6.97;;;28.50;1.00;;;;;;5051953;28;20115;-60
2022/04/29 12:43:09;;;;;;;7.63;7.03;;;28.90;1.00;;;;;;5051277;28;20041;-61
2022/04/29 12:45:34;;;;;;;7.03;6.35;;;29.20;1.00;;;;;;5051542;28;20398;-61
2022/04/29 12:48:03;;;;;;;11.45;10.35;;;30.00;1.00;;;;;;5050698;28;20025;-61
2022/04/29 12:50:41;;;;;;;11.25;7.65;;;30.50;1.00;;;;;;5051940;28;20104;-61
2022/04/29 12:53:09;;;;;;;7.90;7.30;;;30.90;1.00;;;;;;5051261;28;20025;-61
2022/04/29 12:55:37;;;;;;;7.50;6.88;;;31.60;1.00;;;;;;5051880;28;20029;-61
2022/04/29 12:58:03;;;;;;;6.65;6.05;;;30.40;1.00;;;;;;5051065;28;20025;-61
2022/04/29 13:00:29;;;;;;;7.15;6.25;;;30.70;1.00;;;;;;5049996;28;20137;-61
2022/04/29 13:03:09;;;;;;;8.63;6.60;;;30.80;1.00;;;;;;5051896;28;20245;-61
2022/04/29 13:05:35;;;;;;;6.88;6.38;;;31.30;1.00;;;;;;5053098;28;20037;-61
2022/04/29 13:08:03;;;;;;;8.10;6.63;;;31.40;1.00;;;;;;5054771;28;20072;-61
2022/04/29 13:10:29;;;;;;;6.65;6.15;;;31.00;1.00;;;;;;5055462;28;20108;-61
2022/04/29 13:12:56;;;;;;;7.72;7.03;;;31.90;1.00;;;;;;5053790;28;20025;-61
2022/04/29 13:15:22;;;;;;;9.20;6.50;;;32.50;1.00;;;;;;5055707;28;20075;-61
2022/04/29 13:17:48;;;;;;;7.05;6.38;;;33.70;1.00;;;;;;5054768;28;20370;-61
2022/04/29 13:20:13;;;;;;;7.70;7.10;;;35.30;1.00;;;;;;5055729;28;20025;-61
2022/04/29 13:22:39;;;;;;;8.20;6.68;;;36.70;1.00;;;;;;5054288;28;20017;-61
2022/04/29 13:25:09;;;;;;;7.65;7.03;;;39.10;1.00;;;;;;5055291;28;20031;-61
2022/04/29 13:27:35;;;;;;;6.97;6.28;;;38.90;1.00;;;;;;5053114;28;20033;-61
2022/04/29 13:30:02;;;;;;;6.82;6.25;;;40.50;1.00;;;;;;5055249;28;20040;-61
2022/04/29 13:32:28;;;;;;;5.85;5.18;;;39.60;1.00;;;;;;5053054;28;20067;-61
2022/04/29 13:34:54;;;;;;;6.57;5.43;;;40.20;1.00;;;;;;5055074;28;20033;-60
2022/04/29 13:37:20;;;;;;;6.28;5.55;;;39.90;1.00;;;;;;5051740;28;20494;-60
2022/04/29 13:39:47;;;;;;;6.15;5.55;;;39.70;1.00;;;;;;5054951;28;20025;-60
2022/04/29 13:42:13;;;;;;;6.22;5.72;;;38.90;1.00;;;;;;5046161;28;20124;-60
2022/04/29 13:44:39;;;;;;;6.60;5.95;;;37.20;1.00;;;;;;5039948;28;20032;-60
2022/04/29 13:47:06;;;;;;;5.88;5.38;;;36.70;1.00;;;;;;5043586;28;20025;-60
2022/04/29 13:49:31;;;;;;;6.28;5.78;;;35.90;1.00;;;;;;5043373;28;20037;-60
2022/04/29 13:53:07;;;;;;;6.65;6.10;;;36.30;1.00;;;;;;5038180;28;20035;-60
2022/04/29 13:58:05;;;;;;;6.55;5.97;;;37.00;1.00;;;;;;5047663;28;20039;-61
2022/04/29 14:00:32;;;;;;;6.20;5.72;;;35.60;1.00;;;;;;5041491;28;20035;-60